createdAt,value
2019-05-23T00:00:01.122Z,15.23
2019-05-23T00:02:58.432Z,14.97
2019-05-23T00:06:06.962Z,13.70
2019-05-23T00:08:56.043Z,13.70
2019-05-23T00:11:41.478Z,14.87
2019-05-23T00:14:38.013Z,15.87
2019-05-23T00:17:13.944Z,15.93
2019-05-23T00:19:46.089Z,16.97
2019-05-23T00:22:17.000Z,16.20
2019-05-23T00:24:49.170Z,15.73
2019-05-23T00:27:22.437Z,16.97
2019-05-23T00:29:55.031Z,16.93
2019-05-23T00:32:32.215Z,17.17
2019-05-23T00:35:04.182Z,17.13
2019-05-23T00:37:37.223Z,18.60
2019-05-23T00:40:10.776Z,17.20
2019-05-23T00:42:43.493Z,18.53
2019-05-23T00:45:19.643Z,17.53
2019-05-23T00:47:51.817Z,16.63
2019-05-23T00:50:23.475Z,18.83
2019-05-23T00:52:54.927Z,18.37
2019-05-23T00:55:26.280Z,18.47
2019-05-23T00:57:58.700Z,19.47
2019-05-23T01:00:31.422Z,20.37
2019-05-23T01:03:02.805Z,20.90
2019-05-23T01:05:34.401Z,20.27
2019-05-23T01:08:06.754Z,19.43
2019-05-23T01:10:38.409Z,19.83
2019-05-23T01:13:10.562Z,18.77
2019-05-23T01:15:42.027Z,21.07
2019-05-23T01:18:31.742Z,19.43
2019-05-23T01:21:21.600Z,18.60
2019-05-23T01:23:58.532Z,20.07
2019-05-23T01:26:30.269Z,19.63
2019-05-23T01:29:01.972Z,19.50
2019-05-23T01:31:36.978Z,23.53
2019-05-23T01:34:09.547Z,22.23
2019-05-23T01:36:40.410Z,22.13
2019-05-23T01:39:12.406Z,21.53
2019-05-23T01:41:43.827Z,22.50
2019-05-23T01:44:16.269Z,22.30
2019-05-23T01:46:48.736Z,20.73
2019-05-23T01:49:20.152Z,20.93
2019-05-23T01:51:50.967Z,21.53
2019-05-23T01:54:23.005Z,21.33
2019-05-23T01:56:53.627Z,20.33
2019-05-23T01:59:24.320Z,19.70
2019-05-23T02:01:55.523Z,20.70
2019-05-23T02:04:26.648Z,19.47
2019-05-23T02:06:57.915Z,19.30
2019-05-23T02:09:29.520Z,21.17
2019-05-23T02:12:03.397Z,20.93
2019-05-23T02:14:33.957Z,19.20
2019-05-23T02:17:06.241Z,20.97
2019-05-23T02:19:38.034Z,20.50
2019-05-23T02:22:09.466Z,20.43
2019-05-23T02:24:41.462Z,20.67
2019-05-23T02:27:15.032Z,20.43
2019-05-23T02:29:45.980Z,20.23
2019-05-23T02:32:17.683Z,21.87
2019-05-23T02:34:51.143Z,20.60
2019-05-23T02:37:38.647Z,20.47
2019-05-23T02:40:26.643Z,21.10
2019-05-23T02:43:00.690Z,19.13
2019-05-23T02:45:37.538Z,19.27
2019-05-23T02:48:20.046Z,18.87
2019-05-23T02:50:56.377Z,19.83
2019-05-23T02:53:30.717Z,19.90
2019-05-23T02:56:05.619Z,19.50
2019-05-23T02:58:41.138Z,18.70
2019-05-23T03:01:41.672Z,20.00
2019-05-23T03:04:18.067Z,18.83
2019-05-23T03:06:51.163Z,18.90
2019-05-23T03:09:24.474Z,17.80
2019-05-23T03:11:59.867Z,17.23
2019-05-23T03:14:31.119Z,16.83
2019-05-23T03:17:04.622Z,17.30
2019-05-23T03:19:48.588Z,17.33
2019-05-23T03:22:51.302Z,16.60
2019-05-23T03:26:02.037Z,18.07
2019-05-23T03:28:39.226Z,17.47
2019-05-23T03:31:28.442Z,17.97
2019-05-23T03:33:47.241Z,18.63
2019-05-23T03:36:18.169Z,18.40
2019-05-23T03:38:49.604Z,17.70
2019-05-23T03:41:21.871Z,18.60
2019-05-23T03:43:53.972Z,17.30
2019-05-23T03:46:27.190Z,17.00
2019-05-23T03:48:59.343Z,17.10
2019-05-23T03:51:30.291Z,18.83
2019-05-23T03:54:02.736Z,18.33
2019-05-23T03:56:35.223Z,19.63
2019-05-23T03:59:06.477Z,18.97
2019-05-23T04:01:47.935Z,20.63
2019-05-23T04:04:13.979Z,21.00
2019-05-23T04:06:45.247Z,19.73
2019-05-23T04:09:16.403Z,17.30
2019-05-23T04:11:46.791Z,17.03
2019-05-23T04:14:19.760Z,15.07
2019-05-23T04:16:50.923Z,15.37
2019-05-23T04:19:21.649Z,12.87
2019-05-23T04:21:54.158Z,11.73
2019-05-23T04:24:27.321Z,11.03
2019-05-23T04:26:57.934Z,10.40
2019-05-23T04:29:29.019Z,10.60
2019-05-23T04:32:07.889Z,9.13
2019-05-23T04:34:32.936Z,8.90
2019-05-23T04:37:03.613Z,7.97
2019-05-23T04:39:34.733Z,8.43
2019-05-23T04:42:06.909Z,7.60
2019-05-23T04:44:37.774Z,9.03
2019-05-23T04:47:09.936Z,9.57
2019-05-23T04:49:40.940Z,8.67
2019-05-23T04:52:12.204Z,7.80
2019-05-23T04:54:44.052Z,7.67
2019-05-23T04:57:16.478Z,8.80
2019-05-23T04:59:48.140Z,8.10
2019-05-23T05:02:26.051Z,8.33
2019-05-23T05:04:54.911Z,8.37
2019-05-23T05:07:27.614Z,7.60
2019-05-23T05:10:00.260Z,8.30
2019-05-23T05:12:31.536Z,8.73
2019-05-23T05:15:02.152Z,9.73
2019-05-23T05:17:33.719Z,9.00
2019-05-23T05:20:05.292Z,10.87
2019-05-23T05:22:36.974Z,9.80
2019-05-23T05:25:10.235Z,11.23
2019-05-23T05:27:42.473Z,10.03
2019-05-23T05:30:13.597Z,10.23
2019-05-23T05:32:45.802Z,10.60
2019-05-23T05:35:17.198Z,11.77
2019-05-23T05:37:48.369Z,11.20
2019-05-23T05:40:20.977Z,12.20
2019-05-23T05:42:51.872Z,12.03
2019-05-23T05:45:23.564Z,12.00
2019-05-23T05:47:55.525Z,13.60
2019-05-23T05:50:26.187Z,12.20
2019-05-23T05:52:57.237Z,12.77
2019-05-23T05:55:28.129Z,13.67
2019-05-23T05:57:59.309Z,12.63
2019-05-23T06:00:40.214Z,13.83
2019-05-23T06:03:11.283Z,14.20
2019-05-23T06:06:01.022Z,14.03
2019-05-23T06:08:33.567Z,13.57
2019-05-23T06:11:04.692Z,14.20
2019-05-23T06:13:35.339Z,14.17
2019-05-23T06:16:07.080Z,13.23
2019-05-23T06:18:38.060Z,14.83
2019-05-23T06:21:11.210Z,13.90
2019-05-23T06:23:43.050Z,14.60
2019-05-23T06:26:14.005Z,14.43
2019-05-23T06:28:45.643Z,13.73
2019-05-23T06:31:17.642Z,13.13
2019-05-23T06:33:48.818Z,13.33
2019-05-23T06:36:19.730Z,13.83
2019-05-23T06:38:51.196Z,13.30
2019-05-23T06:41:22.879Z,13.47
2019-05-23T06:43:54.402Z,14.17
2019-05-23T06:46:25.609Z,12.53
2019-05-23T06:48:56.784Z,13.43
2019-05-23T06:51:27.344Z,13.33
2019-05-23T06:53:58.397Z,12.80
2019-05-23T06:56:29.377Z,12.70
2019-05-23T06:59:00.111Z,13.03
2019-05-23T07:01:32.028Z,12.33
2019-05-23T07:04:03.184Z,11.60
2019-05-23T07:06:34.316Z,12.23
2019-05-23T07:09:16.082Z,11.63
2019-05-23T07:11:47.048Z,11.70
2019-05-23T07:14:17.825Z,11.97
2019-05-23T07:16:50.376Z,12.47
2019-05-23T07:19:22.125Z,13.03
2019-05-23T07:21:53.222Z,11.57
2019-05-23T07:24:24.883Z,12.17
2019-05-23T07:26:55.448Z,11.20
2019-05-23T07:29:26.957Z,11.30
2019-05-23T07:31:58.369Z,10.10
2019-05-23T07:34:30.113Z,10.40
2019-05-23T07:37:01.644Z,10.17
2019-05-23T07:39:32.384Z,10.00
2019-05-23T07:42:04.228Z,11.80
2019-05-23T07:44:47.825Z,10.77
2019-05-23T07:47:09.687Z,10.43
2019-05-23T07:49:40.593Z,10.53
2019-05-23T07:52:11.232Z,11.63
2019-05-23T07:54:48.086Z,11.50
2019-05-23T07:57:19.411Z,12.87
2019-05-23T07:59:50.482Z,12.47
2019-05-23T08:02:28.146Z,11.90
2019-05-23T08:04:58.850Z,13.07
2019-05-23T08:07:32.743Z,8.47
2019-05-23T08:10:03.226Z,7.30
2019-05-23T08:12:34.158Z,9.60
2019-05-23T08:15:06.978Z,10.10
2019-05-23T08:17:38.403Z,8.00
2019-05-23T08:20:11.691Z,7.73
2019-05-23T08:22:42.817Z,9.63
2019-05-23T08:25:13.777Z,7.33
2019-05-23T08:27:46.242Z,7.47
2019-05-23T08:30:19.766Z,5.67
2019-05-23T08:32:51.242Z,4.80
2019-05-23T08:35:23.143Z,4.90
2019-05-23T08:37:55.205Z,4.60
2019-05-23T08:40:27.023Z,5.10
2019-05-23T08:42:58.174Z,4.37
2019-05-23T08:45:29.292Z,4.97
2019-05-23T08:48:00.472Z,4.50
2019-05-23T08:50:31.155Z,4.30
2019-05-23T08:53:01.898Z,3.30
2019-05-23T08:55:33.474Z,2.83
2019-05-23T08:58:04.876Z,4.40
2019-05-23T09:00:37.793Z,3.80
2019-05-23T09:03:09.003Z,3.47
2019-05-23T09:05:40.652Z,2.90
2019-05-23T09:08:16.182Z,4.07
2019-05-23T09:10:44.605Z,3.27
2019-05-23T09:13:15.827Z,3.83
2019-05-23T09:15:53.215Z,4.13
2019-05-23T09:18:21.335Z,3.43
2019-05-23T09:20:52.364Z,4.13
2019-05-23T09:23:23.380Z,5.67
2019-05-23T09:25:54.694Z,5.77
2019-05-23T09:28:25.729Z,6.03
2019-05-23T09:30:57.213Z,6.03
2019-05-23T09:33:28.094Z,5.03
2019-05-23T09:35:59.119Z,9.13
2019-05-23T09:38:30.462Z,7.83
2019-05-23T09:41:01.335Z,8.27
2019-05-23T09:43:32.748Z,8.83
2019-05-23T09:46:04.239Z,11.07
2019-05-23T09:48:36.330Z,9.53
2019-05-23T09:51:08.263Z,11.70
2019-05-23T09:53:39.200Z,10.70
2019-05-23T09:56:09.894Z,11.20
2019-05-23T09:58:41.012Z,10.17
2019-05-23T10:01:13.571Z,9.93
2019-05-23T10:03:44.633Z,10.40
2019-05-23T10:06:15.385Z,11.67
2019-05-23T10:08:46.534Z,11.00
2019-05-23T10:11:17.513Z,10.70
2019-05-23T10:13:48.133Z,10.33
2019-05-23T10:16:19.087Z,10.40
2019-05-23T10:18:51.044Z,10.90
2019-05-23T10:21:21.594Z,9.73
2019-05-23T10:23:52.687Z,12.03
2019-05-23T10:26:23.959Z,9.33
2019-05-23T10:28:54.837Z,8.70
2019-05-23T10:31:25.890Z,10.00
2019-05-23T10:33:57.054Z,10.03
2019-05-23T10:36:27.731Z,10.53
2019-05-23T10:38:58.779Z,8.13
2019-05-23T10:41:29.938Z,7.67
2019-05-23T10:44:01.298Z,6.63
2019-05-23T10:46:32.933Z,6.73
2019-05-23T10:49:04.125Z,7.07
2019-05-23T10:51:35.913Z,7.40
2019-05-23T10:54:07.351Z,9.00
2019-05-23T10:56:38.703Z,7.13
2019-05-23T10:59:09.985Z,8.77
2019-05-23T11:01:40.845Z,7.80
2019-05-23T11:04:12.239Z,8.40
2019-05-23T11:06:43.165Z,8.23
2019-05-23T11:09:14.674Z,8.60
2019-05-23T11:11:45.670Z,8.37
2019-05-23T11:14:17.018Z,9.00
2019-05-23T11:16:48.098Z,9.03
2019-05-23T11:19:19.194Z,7.80
2019-05-23T11:21:50.428Z,9.63
2019-05-23T11:24:22.301Z,9.87
2019-05-23T11:26:53.501Z,9.97
2019-05-23T11:29:27.274Z,9.87
2019-05-23T11:31:56.726Z,10.30
2019-05-23T11:34:29.413Z,10.90
2019-05-23T11:37:00.364Z,10.77
2019-05-23T11:39:31.693Z,10.00
2019-05-23T11:42:02.868Z,10.07
2019-05-23T11:44:36.024Z,10.37
2019-05-23T11:47:09.096Z,10.73
2019-05-23T11:49:42.322Z,10.90
2019-05-23T11:52:14.350Z,10.93
2019-05-23T11:54:45.817Z,9.80
2019-05-23T11:57:16.806Z,9.83
2019-05-23T11:59:48.021Z,11.00
2019-05-23T12:02:30.932Z,10.00
2019-05-23T12:05:02.970Z,9.53
2019-05-23T12:07:35.420Z,8.88
2019-05-23T12:10:07.344Z,10.38
2019-05-23T12:12:38.612Z,8.63
2019-05-23T12:15:15.201Z,9.10
2019-05-23T12:17:46.140Z,7.70
2019-05-23T12:20:17.423Z,9.53
2019-05-23T12:22:48.889Z,8.80
2019-05-23T12:25:23.021Z,9.48
2019-05-23T12:27:52.927Z,8.18
2019-05-23T12:30:24.404Z,8.93
2019-05-23T12:32:55.455Z,8.70
2019-05-23T12:35:26.851Z,8.70
2019-05-23T12:38:02.259Z,8.73
2019-05-23T12:40:31.079Z,9.88
2019-05-23T12:43:02.125Z,10.18
2019-05-23T12:45:33.214Z,8.65
2019-05-23T12:48:10.033Z,9.93
2019-05-23T12:50:43.775Z,10.23
2019-05-23T12:53:16.277Z,11.10
2019-05-23T12:55:47.022Z,9.70
2019-05-23T12:58:18.739Z,8.48
2019-05-23T13:00:54.809Z,10.60
2019-05-23T13:03:25.885Z,10.48
2019-05-23T13:05:56.906Z,10.40
2019-05-23T13:08:27.830Z,9.55
2019-05-23T13:10:58.851Z,9.78
2019-05-23T13:13:30.028Z,10.65
2019-05-23T13:16:01.155Z,9.78
2019-05-23T13:18:33.326Z,8.55
2019-05-23T13:21:04.515Z,9.25
2019-05-23T13:23:36.423Z,7.25
2019-05-23T13:26:07.417Z,7.03
2019-05-23T13:28:38.943Z,7.65
2019-05-23T13:31:10.047Z,7.83
2019-05-23T13:33:42.470Z,8.13
2019-05-23T13:36:13.698Z,8.25
2019-05-23T13:38:45.254Z,8.60
2019-05-23T13:41:16.374Z,9.18
2019-05-23T13:43:47.587Z,7.60
2019-05-23T13:46:19.815Z,8.40
2019-05-23T13:48:50.910Z,8.95
2019-05-23T13:51:22.294Z,9.30
2019-05-23T13:53:53.235Z,8.45
2019-05-23T13:56:24.159Z,8.13
2019-05-23T13:58:55.379Z,8.05
2019-05-23T14:01:26.186Z,7.28
2019-05-23T14:03:58.559Z,6.90
2019-05-23T14:06:33.299Z,7.35
2019-05-23T14:09:05.740Z,5.92
2019-05-23T14:11:37.213Z,7.03
2019-05-23T14:14:11.491Z,6.62
2019-05-23T14:16:56.039Z,7.40
2019-05-23T14:19:29.591Z,6.05
2019-05-23T14:22:01.999Z,7.03
2019-05-23T14:24:37.392Z,6.70
2019-05-23T14:27:22.594Z,6.42
2019-05-23T14:29:53.808Z,6.87
2019-05-23T14:32:42.750Z,5.42
2019-05-23T14:35:17.945Z,4.72
2019-05-23T14:37:51.459Z,5.60
2019-05-23T14:40:22.262Z,5.08
2019-05-23T14:43:13.446Z,5.17
2019-05-23T14:45:53.561Z,6.10
2019-05-23T14:48:33.785Z,5.30
2019-05-23T14:51:22.477Z,5.85
2019-05-23T14:53:58.171Z,5.65
2019-05-23T14:56:30.723Z,4.83
2019-05-23T14:59:01.930Z,5.45
2019-05-23T15:01:35.202Z,5.95
2019-05-23T15:04:07.422Z,5.22
2019-05-23T15:06:38.248Z,5.17
2019-05-23T15:09:10.055Z,5.55
2019-05-23T15:11:41.835Z,5.03
2019-05-23T15:14:12.669Z,4.78
2019-05-23T15:16:44.520Z,5.72
2019-05-23T15:19:34.817Z,5.70
2019-05-23T15:21:49.011Z,5.42
2019-05-23T15:24:20.698Z,6.05
2019-05-23T15:26:52.104Z,6.00
2019-05-23T15:29:23.084Z,5.65
2019-05-23T15:32:02.523Z,5.50
2019-05-23T15:34:26.892Z,5.58
2019-05-23T15:36:58.291Z,4.95
2019-05-23T15:39:29.918Z,4.80
2019-05-23T15:42:03.855Z,4.78
2019-05-23T15:44:34.950Z,5.10
2019-05-23T15:47:07.355Z,5.12
2019-05-23T15:49:40.374Z,4.33
2019-05-23T15:52:30.040Z,3.87
2019-05-23T15:55:09.986Z,4.40
2019-05-23T15:57:51.163Z,5.25
2019-05-23T16:00:41.624Z,4.25
2019-05-23T16:03:50.184Z,4.95
2019-05-23T16:06:25.876Z,4.60
2019-05-23T16:08:56.881Z,5.10
2019-05-23T16:11:28.999Z,5.80
2019-05-23T16:14:02.328Z,5.45
2019-05-23T16:16:35.105Z,4.75
2019-05-23T16:19:06.666Z,5.75
2019-05-23T16:21:41.828Z,5.78
2019-05-23T16:24:14.549Z,6.40
2019-05-23T16:26:48.921Z,5.08
2019-05-23T16:29:27.256Z,5.72
2019-05-23T16:31:59.696Z,5.30
2019-05-23T16:34:31.274Z,5.55
2019-05-23T16:37:02.626Z,7.03
2019-05-23T16:39:46.643Z,6.50
2019-05-23T16:42:08.460Z,7.87
2019-05-23T16:44:40.355Z,7.60
2019-05-23T16:47:13.469Z,6.83
2019-05-23T16:49:45.200Z,7.47
2019-05-23T16:52:16.398Z,5.62
2019-05-23T16:54:49.246Z,6.33
2019-05-23T16:57:33.753Z,6.37
2019-05-23T17:00:24.546Z,6.12
2019-05-23T17:03:08.379Z,6.10
2019-05-23T17:05:53.301Z,8.48
2019-05-23T17:08:35.627Z,7.95
2019-05-23T17:11:41.060Z,7.97
2019-05-23T17:14:30.863Z,7.28
2019-05-23T17:17:43.164Z,10.20
2019-05-23T17:20:18.170Z,10.30
2019-05-23T17:22:57.746Z,9.33
2019-05-23T17:25:46.493Z,9.43
2019-05-23T17:28:26.397Z,9.48
2019-05-23T17:31:03.542Z,10.20
2019-05-23T17:33:38.560Z,10.30
2019-05-23T17:36:12.650Z,9.80
2019-05-23T17:38:45.235Z,9.00
2019-05-23T17:41:16.831Z,9.90
2019-05-23T17:43:48.116Z,9.25
2019-05-23T17:46:19.106Z,8.95
2019-05-23T17:48:50.483Z,10.35
2019-05-23T17:51:23.661Z,10.70
2019-05-23T17:53:54.791Z,10.13
2019-05-23T17:56:25.710Z,9.35
2019-05-23T17:58:58.081Z,9.13
2019-05-23T18:01:31.049Z,8.60
2019-05-23T18:04:03.197Z,9.50
2019-05-23T18:06:35.283Z,9.25
2019-05-23T18:09:08.580Z,9.00
2019-05-23T18:11:39.652Z,8.73
2019-05-23T18:14:11.714Z,8.35
2019-05-23T18:16:43.016Z,8.10
2019-05-23T18:19:14.265Z,8.93
2019-05-23T18:21:45.423Z,8.10
2019-05-23T18:24:16.737Z,9.03
2019-05-23T18:26:48.109Z,8.40
2019-05-23T18:29:19.283Z,8.00
2019-05-23T18:31:52.136Z,7.95
2019-05-23T18:34:23.616Z,7.65
2019-05-23T18:36:55.011Z,8.78
2019-05-23T18:39:27.359Z,8.55
2019-05-23T18:41:58.387Z,8.20
2019-05-23T18:44:29.847Z,7.72
2019-05-23T18:47:02.805Z,7.63
2019-05-23T18:49:35.300Z,8.37
2019-05-23T18:52:07.202Z,6.60
2019-05-23T18:54:38.298Z,8.30
2019-05-23T18:57:10.546Z,8.43
2019-05-23T18:59:43.359Z,8.47
2019-05-23T19:02:14.752Z,8.87
2019-05-23T19:04:45.742Z,9.90
2019-05-23T19:07:17.342Z,7.77
2019-05-23T19:09:48.504Z,7.43
2019-05-23T19:12:30.718Z,7.50
2019-05-23T19:15:06.036Z,7.50
2019-05-23T19:17:43.857Z,7.93
2019-05-23T19:20:19.923Z,7.40
2019-05-23T19:22:56.312Z,8.70
2019-05-23T19:25:36.160Z,7.43
2019-05-23T19:28:14.428Z,8.60
2019-05-23T19:30:53.187Z,10.13
2019-05-23T19:33:29.691Z,9.37
2019-05-23T19:36:10.769Z,9.67
2019-05-23T19:38:53.150Z,9.70
2019-05-23T19:41:37.652Z,10.50
2019-05-23T19:44:15.449Z,10.13
2019-05-23T19:46:54.047Z,9.63
2019-05-23T19:49:33.846Z,10.87
2019-05-23T19:52:12.922Z,12.40
2019-05-23T19:54:51.465Z,12.77
2019-05-23T19:57:32.377Z,13.10
2019-05-23T20:00:13.679Z,11.53
2019-05-23T20:02:55.558Z,12.10
2019-05-23T20:05:38.160Z,12.83
2019-05-23T20:08:15.447Z,13.80
2019-05-23T20:10:53.846Z,15.97
2019-05-23T20:13:33.573Z,14.03
2019-05-23T20:16:09.728Z,13.27
2019-05-23T20:18:56.831Z,15.40
2019-05-23T20:21:37.646Z,14.43
2019-05-23T20:24:13.886Z,14.73
2019-05-23T20:26:53.607Z,15.10
2019-05-23T20:29:30.651Z,13.17
2019-05-23T20:32:12.497Z,14.40
2019-05-23T20:34:52.039Z,14.93
2019-05-23T20:37:31.048Z,13.70
2019-05-23T20:40:08.509Z,12.53
2019-05-23T20:42:43.778Z,13.87
2019-05-23T20:45:20.386Z,13.13
2019-05-23T20:47:58.499Z,13.80
2019-05-23T20:50:35.706Z,12.30
2019-05-23T20:53:14.272Z,14.10
2019-05-23T20:55:51.195Z,13.57
2019-05-23T20:58:30.470Z,11.03
2019-05-23T21:01:31.203Z,13.00
2019-05-23T21:04:08.313Z,11.07
2019-05-23T21:06:43.139Z,11.97
2019-05-23T21:09:19.723Z,11.57
2019-05-23T21:11:55.393Z,11.20
2019-05-23T21:14:33.996Z,11.90
2019-05-23T21:17:10.121Z,11.40
2019-05-23T21:19:49.761Z,11.60
2019-05-23T21:22:29.647Z,11.53
2019-05-23T21:25:06.109Z,10.57
2019-05-23T21:27:42.979Z,10.60
2019-05-23T21:30:22.100Z,10.50
2019-05-23T21:32:59.089Z,11.63
2019-05-23T21:35:37.821Z,11.80
2019-05-23T21:38:13.854Z,11.97
2019-05-23T21:40:50.954Z,13.10
2019-05-23T21:43:32.468Z,11.07
2019-05-23T21:46:12.157Z,12.33
2019-05-23T21:48:48.852Z,12.77
2019-05-23T21:51:34.019Z,14.97
2019-05-23T21:54:19.876Z,13.83
2019-05-23T21:56:58.902Z,13.33
2019-05-23T21:59:34.842Z,12.80
2019-05-23T22:02:33.121Z,13.47
2019-05-23T22:05:17.199Z,12.27
2019-05-23T22:07:56.658Z,12.23
2019-05-23T22:10:35.561Z,12.53
2019-05-23T22:13:11.560Z,12.90
2019-05-23T22:15:47.144Z,12.13
2019-05-23T22:18:26.756Z,13.87
2019-05-23T22:21:05.364Z,14.10
2019-05-23T22:23:41.876Z,15.53
2019-05-23T22:26:20.208Z,15.93
2019-05-23T22:28:58.987Z,16.27
2019-05-23T22:31:37.253Z,16.67
2019-05-23T22:34:31.844Z,15.17
2019-05-23T22:37:36.492Z,15.47
2019-05-23T22:40:12.580Z,15.33
2019-05-23T22:42:48.568Z,16.60
2019-05-23T22:45:26.231Z,15.97
2019-05-23T22:48:01.662Z,17.03
2019-05-23T22:50:37.016Z,15.40
2019-05-23T22:53:13.653Z,14.43
2019-05-23T22:55:49.022Z,16.27
2019-05-23T22:58:27.452Z,14.20
2019-05-23T23:01:03.542Z,14.60
2019-05-23T23:03:38.882Z,15.23
2019-05-23T23:06:14.547Z,16.10
2019-05-23T23:08:50.324Z,17.50
2019-05-23T23:11:25.573Z,15.90
2019-05-23T23:13:59.848Z,16.30
2019-05-23T23:16:38.287Z,16.40
2019-05-23T23:19:14.504Z,16.30
2019-05-23T23:21:53.154Z,16.60
2019-05-23T23:24:28.343Z,15.73
2019-05-23T23:27:02.698Z,16.40
2019-05-23T23:29:39.196Z,15.80
2019-05-23T23:32:14.028Z,16.77
2019-05-23T23:34:49.655Z,16.60
2019-05-23T23:37:23.686Z,15.90
2019-05-23T23:39:59.104Z,17.23
2019-05-23T23:42:34.656Z,17.23
2019-05-23T23:45:27.840Z,17.63
2019-05-23T23:48:19.757Z,16.57
2019-05-23T23:51:14.874Z,17.17
2019-05-23T23:54:07.103Z,16.77
2019-05-23T23:57:00.234Z,19.47
2019-05-23T23:59:36.164Z,18.53
